Time;durP1;ratioP1;P1;durP2;ratioP2;P2;SDS_P1;SDS_P2;PMS_P1;PMS_P2;Temp;Humidity;BMP_temperature;BMP_pressure;BME280_temperature;BME280_humidity;BME280_pressure;Samples;Min_cycle;Max_cycle;Signal;HPM_P1;HPM_P2
2022/03/01 00:01:15;;;;;;;23.52;14.00;;;;;;;;;;5085837;28;20476;-63
2022/03/01 00:03:41;;;;;;;20.70;12.70;;;;;;;;;;5080020;28;20051;-63
2022/03/01 00:06:07;;;;;;;24.35;12.60;;;;;;;;;;5083605;28;20075;-63
2022/03/01 00:08:33;;;;;;;31.85;12.13;;;;;;;;;;5086579;28;20041;-63
2022/03/01 00:11:00;;;;;;;22.55;12.75;;;;;;;;;;5068770;28;20044;-63
2022/03/01 00:13:26;;;;;;;22.23;13.02;;;;;;;;;;5071384;28;20450;-63
2022/03/01 00:15:52;;;;;;;20.20;12.55;;;;;;;;;;5062738;28;20036;-64
2022/03/01 00:18:19;;;;;;;32.60;13.73;;;;;;;;;;5058944;28;20045;-62
2022/03/01 00:20:45;;;;;;;21.50;12.95;;;;;;;;;;5064859;28;20053;-63
2022/03/01 00:23:11;;;;;;;21.35;12.20;;;;;;;;;;5044714;28;20092;-64
2022/03/01 00:25:37;;;;;;;25.77;12.60;;;;;;;;;;5060005;28;20116;-63
2022/03/01 00:28:03;;;;;;;21.50;12.30;;;;;;;;;;5067177;28;20033;-63
2022/03/01 00:30:29;;;;;;;19.63;11.70;;;;;;;;;;5066540;28;20055;-63
2022/03/01 00:32:55;;;;;;;21.83;12.75;;;;;;;;;;5067860;28;20507;-63
2022/03/01 00:35:22;;;;;;;19.45;11.13;;;;;;;;;;5067720;28;20131;-63
2022/03/01 00:37:48;;;;;;;19.48;11.68;;;;;;;;;;5070762;28;20458;-63
2022/03/01 00:40:14;;;;;;;20.75;11.68;;;;;;;;;;5063985;28;20345;-63
2022/03/01 00:42:40;;;;;;;20.23;12.27;;;;;;;;;;5068045;28;20048;-63
2022/03/01 00:45:07;;;;;;;21.95;11.90;;;;;;;;;;5067741;28;20045;-63
2022/03/01 00:47:33;;;;;;;22.85;12.07;;;;;;;;;;5046858;28;20057;-63
2022/03/01 00:49:59;;;;;;;21.08;11.88;;;;;;;;;;5067156;28;20076;-63
2022/03/01 00:52:25;;;;;;;20.90;12.63;;;;;;;;;;5063883;28;20119;-64
2022/03/01 00:54:51;;;;;;;20.33;12.25;;;;;;;;;;5078055;28;20070;-63
2022/03/01 00:57:17;;;;;;;22.67;12.80;;;;;;;;;;5082409;28;20049;-63
2022/03/01 00:59:44;;;;;;;24.25;12.73;;;;;;;;;;5066771;28;20117;-63
2022/03/01 01:02:10;;;;;;;22.40;12.50;;;;;;;;;;5085942;28;20840;-64
2022/03/01 01:04:36;;;;;;;20.75;11.45;;;;;;;;;;5085758;28;20043;-63
2022/03/01 01:07:02;;;;;;;19.85;12.35;;;;;;;;;;5066631;28;20071;-64
2022/03/01 01:09:29;;;;;;;24.17;13.55;;;;;;;;;;5061596;28;20555;-64
2022/03/01 01:11:55;;;;;;;22.33;14.43;;;;;;;;;;5070788;28;20080;-63
2022/03/01 01:14:21;;;;;;;26.85;13.80;;;;;;;;;;5068071;28;20032;-64
2022/03/01 01:16:47;;;;;;;19.73;12.02;;;;;;;;;;5070114;28;20048;-63
2022/03/01 01:19:13;;;;;;;19.73;12.05;;;;;;;;;;5068270;28;20036;-64
2022/03/01 01:24:24;;;;;;;23.10;12.40;;;;;;;;;;5070476;28;20051;-63
2022/03/01 01:26:51;;;;;;;20.90;12.07;;;;;;;;;;5083442;28;20170;-63
2022/03/01 01:29:17;;;;;;;19.13;12.25;;;;;;;;;;5064563;28;20449;-63
2022/03/01 01:31:43;;;;;;;21.20;12.68;;;;;;;;;;5084640;28;20388;-63
2022/03/01 01:34:09;;;;;;;21.58;12.30;;;;;;;;;;5067865;28;20029;-63
2022/03/01 01:36:35;;;;;;;20.95;11.38;;;;;;;;;;5064833;28;20455;-63
2022/03/01 01:39:01;;;;;;;23.30;12.13;;;;;;;;;;5062472;28;20098;-63
2022/03/01 01:41:27;;;;;;;22.67;13.75;;;;;;;;;;5063026;28;20083;-63
2022/03/01 01:43:54;;;;;;;22.75;13.45;;;;;;;;;;5070734;28;20044;-64
2022/03/01 01:46:21;;;;;;;19.45;12.13;;;;;;;;;;5070025;28;20123;-64
2022/03/01 01:48:47;;;;;;;21.38;12.98;;;;;;;;;;5061373;28;20251;-63
2022/03/01 01:51:13;;;;;;;22.15;12.48;;;;;;;;;;5064109;28;20560;-63
2022/03/01 01:53:39;;;;;;;21.50;12.98;;;;;;;;;;5082439;28;20032;-63
2022/03/01 01:56:05;;;;;;;22.92;13.25;;;;;;;;;;5079495;28;20060;-63
2022/03/01 01:58:32;;;;;;;23.27;13.10;;;;;;;;;;5076992;28;20052;-63
2022/03/01 02:00:58;;;;;;;21.50;12.57;;;;;;;;;;5075328;28;20048;-63
2022/03/01 02:03:24;;;;;;;21.35;12.80;;;;;;;;;;5078014;28;20067;-63
2022/03/01 02:05:50;;;;;;;21.63;12.38;;;;;;;;;;5059471;28;20044;-63
2022/03/01 02:08:16;;;;;;;26.00;14.20;;;;;;;;;;5057423;28;20064;-64
2022/03/01 02:10:42;;;;;;;26.27;13.32;;;;;;;;;;5047160;28;20507;-63
2022/03/01 02:13:09;;;;;;;23.38;12.25;;;;;;;;;;5085239;28;20464;-63
2022/03/01 02:15:36;;;;;;;25.10;13.48;;;;;;;;;;5078662;28;20057;-64
2022/03/01 02:18:04;;;;;;;23.30;12.73;;;;;;;;;;5046074;28;20167;-64
2022/03/01 02:20:30;;;;;;;24.92;12.95;;;;;;;;;;5067404;28;20044;-63
2022/03/01 02:22:57;;;;;;;22.33;12.23;;;;;;;;;;5066302;28;20048;-63
2022/03/01 02:25:23;;;;;;;23.42;13.57;;;;;;;;;;5049983;28;20037;-63
2022/03/01 02:27:49;;;;;;;20.85;13.00;;;;;;;;;;5073540;28;20048;-64
2022/03/01 02:30:16;;;;;;;22.45;12.30;;;;;;;;;;5050405;28;20098;-63
2022/03/01 02:32:42;;;;;;;24.38;13.20;;;;;;;;;;5066663;28;20063;-63
2022/03/01 02:35:09;;;;;;;23.15;13.90;;;;;;;;;;5089602;28;20057;-63
2022/03/01 02:37:36;;;;;;;21.30;12.73;;;;;;;;;;5070332;28;20036;-65
2022/03/01 02:40:05;;;;;;;20.80;12.43;;;;;;;;;;5071040;28;20372;-63
2022/03/01 02:42:31;;;;;;;23.58;12.80;;;;;;;;;;5085137;28;20128;-63
2022/03/01 02:44:58;;;;;;;23.40;13.90;;;;;;;;;;5069713;28;20047;-63
2022/03/01 02:47:24;;;;;;;22.70;12.63;;;;;;;;;;5087421;28;20044;-63
2022/03/01 02:49:50;;;;;;;24.05;13.82;;;;;;;;;;5053478;28;20080;-63
2022/03/01 02:52:16;;;;;;;23.35;13.25;;;;;;;;;;5069516;28;20142;-63
2022/03/01 02:54:42;;;;;;;22.08;12.93;;;;;;;;;;5072758;28;20075;-63
2022/03/01 02:57:09;;;;;;;25.58;13.43;;;;;;;;;;5073179;28;20048;-64
2022/03/01 02:59:35;;;;;;;22.98;13.10;;;;;;;;;;5085361;28;20071;-63
2022/03/01 03:02:01;;;;;;;22.60;13.90;;;;;;;;;;5069525;28;20049;-63
2022/03/01 03:04:27;;;;;;;21.02;13.57;;;;;;;;;;5083678;28;20047;-63
2022/03/01 03:06:53;;;;;;;20.58;12.50;;;;;;;;;;5068256;28;20070;-63
2022/03/01 03:09:21;;;;;;;20.17;12.68;;;;;;;;;;5071037;28;20448;-64
2022/03/01 03:11:47;;;;;;;20.40;12.35;;;;;;;;;;5061660;28;20048;-64
2022/03/01 03:14:13;;;;;;;23.00;13.35;;;;;;;;;;5044436;28;20475;-63
2022/03/01 03:16:40;;;;;;;20.25;12.45;;;;;;;;;;5063578;28;20040;-63
2022/03/01 03:19:06;;;;;;;24.38;12.85;;;;;;;;;;5070111;28;20067;-63
2022/03/01 03:21:32;;;;;;;20.17;13.02;;;;;;;;;;5072275;28;20064;-64
2022/03/01 03:23:58;;;;;;;21.30;12.60;;;;;;;;;;5072785;28;20099;-63
2022/03/01 03:26:24;;;;;;;25.63;13.27;;;;;;;;;;5067422;28;20365;-63
2022/03/01 03:28:51;;;;;;;23.42;12.20;;;;;;;;;;5067429;28;20044;-63
2022/03/01 03:31:17;;;;;;;24.05;13.85;;;;;;;;;;5070007;28;20383;-64
2022/03/01 03:33:44;;;;;;;25.10;14.10;;;;;;;;;;5086533;28;20082;-63
2022/03/01 03:36:10;;;;;;;21.02;12.55;;;;;;;;;;5069844;28;20039;-63
2022/03/01 03:38:36;;;;;;;26.23;12.85;;;;;;;;;;5084906;28;20048;-63
2022/03/01 03:41:02;;;;;;;23.30;13.90;;;;;;;;;;5069977;28;20043;-64
2022/03/01 03:43:28;;;;;;;22.67;12.52;;;;;;;;;;5085947;28;20235;-64
2022/03/01 03:45:55;;;;;;;23.90;14.30;;;;;;;;;;5066888;28;20048;-63
2022/03/01 03:48:21;;;;;;;26.08;13.80;;;;;;;;;;5070186;28;20041;-63
2022/03/01 03:50:47;;;;;;;25.25;13.45;;;;;;;;;;5069473;28;20052;-64
2022/03/01 03:53:13;;;;;;;26.15;13.02;;;;;;;;;;5069123;28;20051;-63
2022/03/01 03:55:39;;;;;;;22.15;13.55;;;;;;;;;;5068401;28;20041;-64
2022/03/01 03:58:06;;;;;;;22.70;13.13;;;;;;;;;;5071693;28;20056;-63
2022/03/01 04:00:32;;;;;;;21.98;13.05;;;;;;;;;;5052007;28;20484;-63
2022/03/01 04:02:58;;;;;;;24.85;13.93;;;;;;;;;;5078451;28;20067;-63
2022/03/01 04:05:24;;;;;;;24.70;13.05;;;;;;;;;;5068335;28;20044;-63
2022/03/01 04:07:51;;;;;;;23.30;12.52;;;;;;;;;;5069746;28;20045;-63
2022/03/01 04:10:17;;;;;;;27.90;13.85;;;;;;;;;;5068082;28;20032;-63
2022/03/01 04:12:44;;;;;;;22.42;12.88;;;;;;;;;;5051275;28;20098;-63
2022/03/01 04:15:10;;;;;;;22.52;12.65;;;;;;;;;;5070041;28;20036;-63
2022/03/01 04:17:37;;;;;;;28.20;14.02;;;;;;;;;;5060589;28;20059;-63
2022/03/01 04:20:04;;;;;;;22.65;13.55;;;;;;;;;;5063757;28;20036;-63
2022/03/01 04:22:30;;;;;;;23.77;12.50;;;;;;;;;;5050228;28;20048;-63
2022/03/01 04:24:56;;;;;;;21.63;13.65;;;;;;;;;;5070729;28;20087;-63
2022/03/01 04:27:22;;;;;;;25.23;13.65;;;;;;;;;;5072006;28;20456;-63
2022/03/01 04:29:49;;;;;;;24.67;13.98;;;;;;;;;;5048401;28;20047;-64
2022/03/01 04:32:15;;;;;;;26.10;14.10;;;;;;;;;;5062988;28;20048;-63
2022/03/01 04:34:41;;;;;;;24.05;13.95;;;;;;;;;;5051802;28;20093;-64
2022/03/01 04:37:08;;;;;;;35.80;13.93;;;;;;;;;;5053597;28;20076;-64
2022/03/01 04:39:34;;;;;;;22.48;13.27;;;;;;;;;;5068152;28;20119;-63
2022/03/01 04:42:00;;;;;;;21.23;13.15;;;;;;;;;;5065402;28;20131;-64
2022/03/01 04:44:26;;;;;;;24.30;13.70;;;;;;;;;;5066811;28;20131;-62
2022/03/01 04:46:53;;;;;;;22.20;13.13;;;;;;;;;;5070523;28;20048;-63
2022/03/01 04:49:19;;;;;;;23.75;14.45;;;;;;;;;;5078559;28;20068;-63
2022/03/01 04:51:45;;;;;;;23.38;14.10;;;;;;;;;;5063811;28;20066;-63
2022/03/01 04:54:11;;;;;;;22.33;13.13;;;;;;;;;;5063506;28;20037;-63
2022/03/01 04:56:37;;;;;;;25.45;13.98;;;;;;;;;;5059733;28;20250;-63
2022/03/01 04:59:03;;;;;;;21.42;13.68;;;;;;;;;;5062328;28;20040;-63
2022/03/01 05:01:29;;;;;;;22.95;13.48;;;;;;;;;;5061715;28;20037;-62
2022/03/01 05:03:56;;;;;;;21.45;13.55;;;;;;;;;;5067081;28;21680;-63
2022/03/01 05:06:22;;;;;;;22.40;12.80;;;;;;;;;;5066524;28;20066;-63
2022/03/01 05:08:48;;;;;;;23.10;13.23;;;;;;;;;;5068469;28;20044;-63
2022/03/01 05:11:14;;;;;;;25.17;14.40;;;;;;;;;;5065296;28;20044;-63
2022/03/01 05:13:40;;;;;;;26.00;14.70;;;;;;;;;;5081792;28;20040;-63
2022/03/01 05:16:07;;;;;;;24.00;13.35;;;;;;;;;;5066713;28;20610;-63
2022/03/01 05:18:33;;;;;;;23.88;13.38;;;;;;;;;;5070732;28;20040;-62
2022/03/01 05:20:59;;;;;;;25.42;14.07;;;;;;;;;;5063202;28;20043;-63
2022/03/01 05:23:27;;;;;;;21.13;13.15;;;;;;;;;;5079061;28;20044;-63
2022/03/01 05:25:54;;;;;;;22.48;13.77;;;;;;;;;;5079979;28;20048;-63
2022/03/01 05:28:20;;;;;;;23.58;13.82;;;;;;;;;;5065042;28;20040;-63
2022/03/01 05:30:46;;;;;;;23.70;14.52;;;;;;;;;;5076383;28;20127;-63
2022/03/01 05:33:12;;;;;;;23.27;13.88;;;;;;;;;;5049061;28;20047;-63
2022/03/01 05:35:39;;;;;;;25.80;13.88;;;;;;;;;;5083503;28;20041;-63
2022/03/01 05:38:07;;;;;;;23.60;13.38;;;;;;;;;;5052478;28;20040;-63
2022/03/01 05:40:33;;;;;;;21.60;13.05;;;;;;;;;;5069899;28;20036;-63
2022/03/01 05:43:00;;;;;;;23.67;13.00;;;;;;;;;;5069508;28;20045;-63
2022/03/01 05:45:26;;;;;;;21.50;13.00;;;;;;;;;;5046110;28;20040;-63
2022/03/01 05:47:53;;;;;;;23.02;14.38;;;;;;;;;;5065883;28;20049;-63
2022/03/01 05:50:20;;;;;;;24.15;14.35;;;;;;;;;;5069767;28;20423;-63
2022/03/01 05:52:46;;;;;;;22.77;13.25;;;;;;;;;;5070222;28;20488;-62
2022/03/01 05:55:13;;;;;;;25.52;14.65;;;;;;;;;;5067351;28;20049;-63
2022/03/01 05:57:39;;;;;;;24.30;14.38;;;;;;;;;;5081525;28;20131;-62
2022/03/01 06:00:07;;;;;;;19.95;12.98;;;;;;;;;;5082978;28;20036;-62
2022/03/01 06:02:33;;;;;;;26.08;14.88;;;;;;;;;;5065357;28;20037;-62
2022/03/01 06:04:59;;;;;;;25.08;14.27;;;;;;;;;;5070397;28;20037;-62
2022/03/01 06:07:25;;;;;;;24.33;14.77;;;;;;;;;;5088954;28;20097;-62
2022/03/01 06:09:51;;;;;;;25.88;13.45;;;;;;;;;;5069839;28;20147;-62
2022/03/01 06:12:17;;;;;;;26.48;15.13;;;;;;;;;;5050915;28;20055;-63
2022/03/01 06:14:44;;;;;;;23.83;14.68;;;;;;;;;;5054063;28;20146;-62
2022/03/01 06:17:10;;;;;;;23.88;14.23;;;;;;;;;;5052339;28;20040;-62
2022/03/01 06:19:36;;;;;;;27.20;13.27;;;;;;;;;;5066469;28;20040;-63
2022/03/01 06:22:02;;;;;;;24.33;14.23;;;;;;;;;;5072328;28;20121;-63
2022/03/01 06:24:29;;;;;;;20.80;13.25;;;;;;;;;;5070594;28;20127;-63
2022/03/01 06:26:55;;;;;;;29.52;14.27;;;;;;;;;;5067200;28;20045;-62
2022/03/01 06:29:21;;;;;;;23.65;13.73;;;;;;;;;;5070935;28;20032;-62
2022/03/01 06:31:47;;;;;;;26.35;14.07;;;;;;;;;;5066093;28;20049;-63
2022/03/01 06:34:13;;;;;;;22.83;13.65;;;;;;;;;;5067275;28;20480;-63
2022/03/01 06:36:39;;;;;;;25.70;14.88;;;;;;;;;;5073145;28;20083;-62
2022/03/01 06:39:05;;;;;;;25.67;13.85;;;;;;;;;;5041849;28;20056;-62
2022/03/01 06:41:31;;;;;;;24.08;12.98;;;;;;;;;;5067849;28;20052;-62
2022/03/01 06:43:58;;;;;;;26.92;13.35;;;;;;;;;;5087150;28;20135;-62
2022/03/01 06:46:25;;;;;;;23.90;13.77;;;;;;;;;;5074804;28;20115;-62
2022/03/01 06:48:51;;;;;;;22.95;13.35;;;;;;;;;;5072988;28;20045;-62
2022/03/01 06:51:17;;;;;;;24.30;13.63;;;;;;;;;;5071552;28;20392;-62
2022/03/01 06:53:43;;;;;;;24.27;13.40;;;;;;;;;;5087561;28;20508;-62
2022/03/01 06:56:09;;;;;;;23.08;13.88;;;;;;;;;;5041192;28;20045;-62
2022/03/01 06:58:35;;;;;;;24.20;13.82;;;;;;;;;;5053528;28;20436;-63
2022/03/01 07:01:02;;;;;;;20.42;12.88;;;;;;;;;;5054545;28;20420;-63
2022/03/01 07:03:28;;;;;;;25.73;14.18;;;;;;;;;;5036101;28;20109;-62
2022/03/01 07:05:54;;;;;;;23.42;13.68;;;;;;;;;;5037390;28;20049;-62
2022/03/01 07:08:22;;;;;;;29.38;14.82;;;;;;;;;;5022750;28;20060;-62
2022/03/01 07:10:49;;;;;;;27.80;13.48;;;;;;;;;;5046688;28;20488;-63
2022/03/01 07:13:15;;;;;;;24.88;13.55;;;;;;;;;;5047765;28;20037;-62
2022/03/01 07:15:41;;;;;;;23.15;13.68;;;;;;;;;;5037617;28;20056;-63
2022/03/01 07:18:08;;;;;;;24.45;13.95;;;;;;;;;;5041819;28;20473;-63
2022/03/01 07:20:36;;;;;;;23.00;12.88;;;;;;;;;;5043650;28;20037;-63
2022/03/01 07:23:03;;;;;;;21.67;12.93;;;;;;;;;;5028555;28;20063;-63
2022/03/01 07:25:29;;;;;;;24.20;13.20;;;;;;;;;;5042955;28;20452;-63
2022/03/01 07:27:55;;;;;;;26.63;14.05;;;;;;;;;;5043790;28;20052;-65
2022/03/01 07:30:22;;;;;;;23.08;14.35;;;;;;;;;;5045033;28;20120;-63
2022/03/01 07:32:49;;;;;;;27.25;15.45;;;;;;;;;;5045823;28;20136;-62
2022/03/01 07:35:15;;;;;;;26.05;14.30;;;;;;;;;;5047003;28;20037;-63
2022/03/01 07:37:41;;;;;;;23.98;14.48;;;;;;;;;;5043394;28;20041;-64
2022/03/01 07:40:10;;;;;;;25.63;14.75;;;;;;;;;;5052590;28;20040;-63
2022/03/01 07:42:36;;;;;;;21.35;13.38;;;;;;;;;;5054435;28;20105;-62
2022/03/01 07:45:02;;;;;;;23.83;14.93;;;;;;;;;;5044218;28;20033;-64
2022/03/01 07:47:28;;;;;;;27.42;14.38;;;;;;;;;;5045233;28;20036;-63
2022/03/01 07:49:54;;;;;;;22.67;14.23;;;;;;;;;;5015646;28;20088;-62
2022/03/01 07:52:21;;;;;;;22.48;13.18;;;;;;;;;;5024234;28;20048;-62
2022/03/01 07:54:48;;;;;;;24.20;13.75;;;;;;;;;;5043083;28;20071;-63
2022/03/01 07:57:14;;;;;;;22.67;13.18;;;;;;;;;;5071893;28;20057;-62
2022/03/01 07:59:41;;;;;;;22.60;13.98;;;;;;;;;;5081761;28;20094;-62
2022/03/01 08:02:07;;;;;;;26.08;14.30;;;;;;;;;;5037372;28;20102;-62
2022/03/01 08:04:33;;;;;;;22.48;13.70;;;;;;;;;;5041732;28;20072;-63
2022/03/01 08:06:59;;;;;;;25.05;13.73;;;;;;;;;;5063431;28;20119;-63
2022/03/01 08:09:25;;;;;;;23.35;13.35;;;;;;;;;;5062223;28;20051;-64
2022/03/01 08:11:51;;;;;;;23.10;14.10;;;;;;;;;;5063224;28;20493;-64
2022/03/01 08:14:18;;;;;;;23.52;13.85;;;;;;;;;;5076488;28;20067;-63
2022/03/01 08:16:44;;;;;;;21.42;13.80;;;;;;;;;;5074751;28;20086;-63
2022/03/01 08:19:10;;;;;;;22.63;14.30;;;;;;;;;;5057062;28;20040;-63
2022/03/01 08:21:37;;;;;;;23.92;13.50;;;;;;;;;;5059057;28;20143;-64
2022/03/01 08:24:03;;;;;;;26.20;14.25;;;;;;;;;;5074224;28;20048;-63
2022/03/01 08:26:29;;;;;;;27.42;14.13;;;;;;;;;;5061550;28;20143;-63
2022/03/01 08:28:55;;;;;;;21.67;13.40;;;;;;;;;;5062951;28;20045;-66
2022/03/01 08:31:22;;;;;;;27.00;14.25;;;;;;;;;;5066443;28;20055;-66
2022/03/01 08:33:48;;;;;;;25.23;14.23;;;;;;;;;;5063261;28;20041;-66
2022/03/01 08:36:14;;;;;;;23.95;14.15;;;;;;;;;;5058414;28;20128;-64
2022/03/01 08:38:40;;;;;;;24.70;14.02;;;;;;;;;;5059813;28;20433;-66
2022/03/01 08:41:07;;;;;;;25.15;13.88;;;;;;;;;;5066399;28;20487;-65
2022/03/01 08:43:33;;;;;;;24.98;14.68;;;;;;;;;;5065132;28;20057;-65
2022/03/01 08:45:59;;;;;;;23.58;14.27;;;;;;;;;;5064490;28;20037;-65
2022/03/01 08:48:25;;;;;;;21.38;13.45;;;;;;;;;;5051388;28;20891;-65
2022/03/01 08:50:53;;;;;;;25.45;14.27;;;;;;;;;;5063433;28;20197;-65
2022/03/01 08:53:19;;;;;;;27.83;15.68;;;;;;;;;;5050675;28;20123;-65
2022/03/01 08:55:46;;;;;;;25.63;13.93;;;;;;;;;;5047270;28;20071;-65
2022/03/01 08:58:12;;;;;;;23.77;14.48;;;;;;;;;;5060251;28;20052;-65
2022/03/01 09:00:39;;;;;;;22.98;14.23;;;;;;;;;;5063424;28;20041;-64
2022/03/01 09:03:05;;;;;;;20.70;13.65;;;;;;;;;;5047911;28;20040;-64
2022/03/01 09:05:32;;;;;;;23.58;13.75;;;;;;;;;;5049286;28;20043;-65
2022/03/01 09:07:58;;;;;;;22.33;13.32;;;;;;;;;;5066016;28;20048;-65
2022/03/01 09:10:24;;;;;;;24.02;13.52;;;;;;;;;;5060309;28;20128;-65
2022/03/01 09:12:52;;;;;;;23.02;13.77;;;;;;;;;;5066155;28;20488;-64
2022/03/01 09:15:19;;;;;;;27.65;14.70;;;;;;;;;;5065864;28;20044;-64
2022/03/01 09:17:46;;;;;;;26.40;14.55;;;;;;;;;;5067507;28;20032;-64
2022/03/01 09:20:13;;;;;;;27.17;15.02;;;;;;;;;;5063475;28;20048;-64
2022/03/01 09:22:39;;;;;;;22.77;14.57;;;;;;;;;;5070585;28;20403;-64
2022/03/01 09:25:06;;;;;;;23.90;13.88;;;;;;;;;;5052488;28;20123;-64
2022/03/01 09:27:32;;;;;;;24.63;14.45;;;;;;;;;;5048254;28;20498;-64
2022/03/01 09:29:59;;;;;;;25.13;13.35;;;;;;;;;;5070774;28;20041;-64
2022/03/01 09:32:26;;;;;;;25.05;14.10;;;;;;;;;;5052889;28;20049;-64
2022/03/01 09:34:52;;;;;;;24.73;14.88;;;;;;;;;;5070225;28;20052;-64
2022/03/01 09:37:18;;;;;;;25.38;14.43;;;;;;;;;;5065356;28;20076;-64
2022/03/01 09:39:44;;;;;;;24.00;14.45;;;;;;;;;;5047660;28;20104;-65
2022/03/01 09:42:10;;;;;;;24.50;13.95;;;;;;;;;;5061498;28;20044;-65
2022/03/01 09:44:37;;;;;;;28.38;14.27;;;;;;;;;;5057992;28;20094;-65
2022/03/01 09:47:03;;;;;;;24.75;14.10;;;;;;;;;;5057246;28;20055;-64
2022/03/01 09:49:30;;;;;;;21.23;13.73;;;;;;;;;;5057521;28;20124;-65
2022/03/01 09:51:56;;;;;;;21.50;13.73;;;;;;;;;;5041864;28;20041;-65
2022/03/01 09:54:23;;;;;;;22.77;14.65;;;;;;;;;;5058210;28;20087;-64
2022/03/01 09:56:49;;;;;;;26.42;13.55;;;;;;;;;;5058278;28;20633;-64
2022/03/01 09:59:16;;;;;;;22.88;13.98;;;;;;;;;;5056932;28;20143;-64
2022/03/01 10:01:50;;;;;;;24.85;14.20;;;;;;;;;;5050256;28;20037;-65
2022/03/01 10:04:16;;;;;;;23.45;14.80;;;;;;;;;;5056386;28;20037;-64
2022/03/01 10:06:44;;;;;;;23.08;14.15;;;;;;;;;;5054276;28;20045;-64
2022/03/01 10:09:21;;;;;;;23.25;14.68;;;;;;;;;;5038904;28;20106;-64
2022/03/01 10:11:48;;;;;;;23.23;14.57;;;;;;;;;;5058482;28;20088;-64
2022/03/01 10:14:15;;;;;;;27.58;16.02;;;;;;;;;;5037061;28;20045;-64
2022/03/01 10:16:42;;;;;;;26.40;14.90;;;;;;;;;;5053225;28;20041;-65
2022/03/01 10:19:11;;;;;;;34.03;16.33;;;;;;;;;;5035557;28;20053;-65
2022/03/01 10:21:37;;;;;;;30.65;16.38;;;;;;;;;;5074335;28;20041;-65
2022/03/01 10:24:06;;;;;;;27.77;16.83;;;;;;;;;;5059405;28;20040;-64
2022/03/01 10:26:37;;;;;;;26.88;16.85;;;;;;;;;;5059153;28;20056;-65
2022/03/01 10:29:04;;;;;;;29.83;18.08;;;;;;;;;;5052682;28;20052;-65
2022/03/01 10:31:32;;;;;;;27.95;17.25;;;;;;;;;;5066938;28;20103;-64
2022/03/01 10:34:00;;;;;;;27.15;17.58;;;;;;;;;;5058424;28;20121;-65
2022/03/01 10:36:28;;;;;;;26.50;17.13;;;;;;;;;;5040790;28;20088;-65
2022/03/01 10:38:56;;;;;;;31.65;18.33;;;;;;;;;;5074913;28;22261;-64
2022/03/01 10:41:24;;;;;;;32.13;17.63;;;;;;;;;;5061294;28;20114;-65
2022/03/01 10:43:53;;;;;;;30.25;19.05;;;;;;;;;;5055539;28;20392;-64
2022/03/01 10:46:19;;;;;;;29.65;18.73;;;;;;;;;;5042442;28;20357;-65
2022/03/01 10:48:45;;;;;;;33.47;18.23;;;;;;;;;;5079103;28;20082;-64
2022/03/01 10:51:11;;;;;;;29.40;17.95;;;;;;;;;;5061107;28;20442;-64
2022/03/01 10:53:40;;;;;;;29.48;18.20;;;;;;;;;;5063614;28;21684;-63
2022/03/01 10:56:08;;;;;;;28.75;18.15;;;;;;;;;;5077633;28;20056;-63
2022/03/01 10:58:36;;;;;;;26.55;17.90;;;;;;;;;;5057985;28;20049;-63
2022/03/01 11:01:03;;;;;;;30.00;17.25;;;;;;;;;;5040907;28;20072;-64
2022/03/01 11:03:30;;;;;;;26.70;17.58;;;;;;;;;;5065685;28;20097;-63
2022/03/01 11:05:57;;;;;;;28.83;17.70;;;;;;;;;;5066144;28;20549;-63
2022/03/01 11:08:30;;;;;;;34.35;19.48;;;;;;;;;;5047200;28;20041;-64
2022/03/01 11:10:59;;;;;;;30.35;18.85;;;;;;;;;;5063177;28;20047;-66
2022/03/01 11:13:25;;;;;;;27.80;17.73;;;;;;;;;;5060304;28;20056;-64
2022/03/01 11:16:03;;;;;;;33.38;19.67;;;;;;;;;;5057461;28;20040;-64
2022/03/01 11:18:49;;;;;;;34.08;19.85;;;;;;;;;;5061932;28;20849;-63
2022/03/01 11:21:16;;;;;;;34.55;21.33;;;;;;;;;;5065182;28;20056;-63
2022/03/01 11:23:43;;;;;;;35.40;21.02;;;;;;;;;;5058567;28;20434;-63
2022/03/01 11:26:10;;;;;;;36.40;21.27;;;;;;;;;;5063859;28;20036;-63
2022/03/01 11:28:40;;;;;;;33.63;20.75;;;;;;;;;;5063019;28;20037;-64
2022/03/01 11:31:20;;;;;;;35.45;21.45;;;;;;;;;;5063336;28;20049;-64
2022/03/01 11:33:54;;;;;;;34.85;22.45;;;;;;;;;;5056343;28;20053;-64
2022/03/01 11:36:21;;;;;;;33.95;21.20;;;;;;;;;;5064442;28;20041;-63
2022/03/01 11:38:47;;;;;;;34.20;20.75;;;;;;;;;;5082628;28;20155;-64
2022/03/01 11:41:18;;;;;;;38.53;23.00;;;;;;;;;;5059350;28;20196;-63
2022/03/01 11:43:44;;;;;;;35.53;21.20;;;;;;;;;;5060852;28;20425;-64
2022/03/01 11:46:15;;;;;;;32.50;20.20;;;;;;;;;;5055442;28;20037;-64
2022/03/01 11:48:50;;;;;;;37.42;21.65;;;;;;;;;;5055427;28;20127;-64
2022/03/01 11:51:17;;;;;;;34.45;21.55;;;;;;;;;;5071852;28;20048;-65
2022/03/01 11:53:45;;;;;;;35.95;22.77;;;;;;;;;;5057194;28;20072;-64
2022/03/01 11:56:12;;;;;;;38.08;21.35;;;;;;;;;;5065310;28;20422;-64
2022/03/01 11:58:39;;;;;;;35.45;22.65;;;;;;;;;;5066545;28;20115;-64
2022/03/01 12:01:07;;;;;;;37.95;21.42;;;;;;;;;;5064007;28;20123;-64
2022/03/01 12:03:35;;;;;;;42.25;21.60;;;;;;;;;;5062961;28;20037;-64
2022/03/01 12:06:02;;;;;;;36.15;22.63;;;;;;;;;;5061426;28;20099;-64
2022/03/01 12:08:29;;;;;;;37.92;21.58;;;;;;;;;;5060223;28;20044;-64
2022/03/01 12:10:57;;;;;;;40.38;23.27;;;;;;;;;;5066629;28;20044;-63
2022/03/01 12:13:38;;;;;;;34.88;21.70;;;;;;;;;;5061024;28;20052;-63
2022/03/01 12:16:05;;;;;;;37.55;22.42;;;;;;;;;;5066791;28;20036;-64
2022/03/01 12:18:33;;;;;;;34.80;20.50;;;;;;;;;;5065684;28;20048;-63
2022/03/01 12:21:01;;;;;;;37.63;23.30;;;;;;;;;;5063969;28;20036;-64
2022/03/01 12:23:29;;;;;;;36.67;20.65;;;;;;;;;;5064991;28;20071;-63
2022/03/01 12:25:55;;;;;;;33.80;20.35;;;;;;;;;;5066339;28;20048;-63
2022/03/01 12:28:22;;;;;;;39.58;22.52;;;;;;;;;;5065348;28;20091;-63
2022/03/01 12:30:48;;;;;;;33.97;21.60;;;;;;;;;;5064452;28;20056;-63
2022/03/01 12:33:16;;;;;;;36.58;21.33;;;;;;;;;;5066060;28;20131;-63
2022/03/01 12:35:43;;;;;;;31.88;20.13;;;;;;;;;;5084016;28;20507;-64
2022/03/01 12:38:10;;;;;;;35.10;22.35;;;;;;;;;;5076700;28;20365;-63
2022/03/01 12:40:37;;;;;;;33.95;21.80;;;;;;;;;;5060893;28;20042;-63
2022/03/01 12:43:05;;;;;;;40.22;23.67;;;;;;;;;;5036179;28;20068;-64
2022/03/01 12:45:32;;;;;;;32.88;21.15;;;;;;;;;;5033225;28;20071;-63
2022/03/01 12:47:59;;;;;;;34.65;22.02;;;;;;;;;;5052408;28;20110;-63
2022/03/01 12:50:25;;;;;;;39.17;23.23;;;;;;;;;;5059963;28;20051;-64
2022/03/01 12:52:54;;;;;;;38.80;21.98;;;;;;;;;;5058354;28;20089;-63
2022/03/01 12:55:21;;;;;;;35.78;22.67;;;;;;;;;;5038962;28;20389;-63
2022/03/01 12:57:48;;;;;;;38.55;23.88;;;;;;;;;;5071338;28;20053;-64
2022/03/01 13:00:14;;;;;;;36.38;21.73;;;;;;;;;;5058712;28;20077;-63
2022/03/01 13:02:54;;;;;;;40.80;23.05;;;;;;;;;;5056354;28;20037;-63
2022/03/01 13:05:24;;;;;;;33.10;22.95;;;;;;;;;;5041956;28;20055;-63
2022/03/01 13:07:50;;;;;;;40.72;24.92;;;;;;;;;;5058080;28;20102;-63
2022/03/01 13:10:25;;;;;;;39.42;22.27;;;;;;;;;;5054776;28;20155;-63
2022/03/01 13:12:52;;;;;;;37.58;22.92;;;;;;;;;;5057596;28;20049;-64
2022/03/01 13:15:22;;;;;;;42.22;24.77;;;;;;;;;;5043814;28;20457;-63
2022/03/01 13:17:56;;;;;;;39.67;22.95;;;;;;;;;;5057840;28;20048;-63
2022/03/01 13:20:22;;;;;;;38.20;23.30;;;;;;;;;;5059443;28;20049;-63
2022/03/01 13:22:59;;;;;;;39.35;23.65;;;;;;;;;;5075315;28;20569;-63
2022/03/01 13:25:25;;;;;;;39.03;24.10;;;;;;;;;;5073160;28;20148;-64
2022/03/01 13:27:53;;;;;;;36.33;22.35;;;;;;;;;;5058091;28;20044;-63
2022/03/01 13:30:23;;;;;;;40.90;23.95;;;;;;;;;;5061945;28;20036;-63
2022/03/01 13:32:50;;;;;;;41.78;25.00;;;;;;;;;;5051119;28;20058;-64
2022/03/01 13:35:16;;;;;;;40.08;22.88;;;;;;;;;;5073659;28;20441;-64
2022/03/01 13:37:43;;;;;;;42.45;24.88;;;;;;;;;;5059362;28;20044;-63
2022/03/01 13:40:09;;;;;;;49.65;25.50;;;;;;;;;;5057313;28;20079;-66
2022/03/01 13:42:36;;;;;;;41.97;25.13;;;;;;;;;;5074894;28;20044;-67
2022/03/01 13:45:09;;;;;;;41.53;25.02;;;;;;;;;;5057904;28;20048;-64
2022/03/01 13:47:36;;;;;;;39.47;25.20;;;;;;;;;;5053355;28;20048;-63
2022/03/01 13:50:05;;;;;;;41.28;25.17;;;;;;;;;;5037436;28;20116;-64
2022/03/01 13:52:35;;;;;;;38.83;23.13;;;;;;;;;;5053027;28;20045;-64
2022/03/01 13:55:07;;;;;;;37.83;23.15;;;;;;;;;;5055704;28;20124;-64
2022/03/01 13:57:35;;;;;;;38.53;23.67;;;;;;;;;;5046692;28;20512;-63
2022/03/01 14:00:05;;;;;;;40.28;24.95;;;;;;;;;;5045860;28;20440;-63
2022/03/01 14:02:31;;;;;;;36.33;24.88;;;;;;;;;;5064610;28;20041;-65
2022/03/01 14:04:58;;;;;;;35.17;23.55;;;;;;;;;;5042821;28;20116;-63
2022/03/01 14:07:25;;;;;;;39.70;24.73;;;;;;;;;;5061047;28;20040;-64
2022/03/01 14:09:52;;;;;;;37.03;23.50;;;;;;;;;;5058814;28;20090;-65
2022/03/01 14:12:18;;;;;;;39.75;24.23;;;;;;;;;;5035871;28;20361;-64
2022/03/01 14:14:46;;;;;;;44.25;22.45;;;;;;;;;;5059121;28;20623;-64
2022/03/01 14:17:20;;;;;;;39.40;23.42;;;;;;;;;;5039646;28;20052;-64